Time;durP1;ratioP1;P1;durP2;ratioP2;P2;SDS_P1;SDS_P2;PMS_P1;PMS_P2;Temp;Humidity;BMP_temperature;BMP_pressure;BME280_temperature;BME280_humidity;BME280_pressure;Samples;Min_cycle;Max_cycle;Signal;HPM_P1;HPM_P2
2022/12/16 00:01:36;;;;;;;72.53;38.28;;;;;;;-9.72;88.91;100606.69;7398794;19;20019;-69
2022/12/16 00:04:06;;;;;;;70.50;39.25;;;;;;;-9.72;88.96;100613.44;7398763;19;20095;-69
2022/12/16 00:06:46;;;;;;;79.03;40.50;;;;;;;-9.75;88.88;100613.28;7396401;19;20018;-69
2022/12/16 00:09:15;;;;;;;66.90;38.30;;;;;;;-9.76;88.73;100611.53;7399360;19;20106;-69
2022/12/16 00:11:43;;;;;;;62.60;34.55;;;;;;;-9.78;88.76;100608.91;7398729;19;20023;-69
2022/12/16 00:14:12;;;;;;;66.65;34.47;;;;;;;-9.82;88.60;100605.31;7396394;19;20383;-70
2022/12/16 00:16:43;;;;;;;67.20;35.53;;;;;;;-9.84;88.60;100621.25;7397129;19;20027;-68
2022/12/16 00:19:11;;;;;;;63.85;34.72;;;;;;;-9.85;88.70;100616.94;7398956;19;20042;-69
2022/12/16 00:21:40;;;;;;;63.90;34.60;;;;;;;-9.86;88.63;100617.72;7397823;19;20502;-68
2022/12/16 00:24:08;;;;;;;66.53;34.15;;;;;;;-9.89;88.72;100612.50;7397792;19;20019;-69
2022/12/16 00:26:37;;;;;;;64.80;34.13;;;;;;;-9.91;88.69;100612.38;7394659;19;20494;-68
2022/12/16 00:29:09;;;;;;;59.35;31.23;;;;;;;-9.93;88.64;100603.81;7398131;19;20023;-69
2022/12/16 00:31:37;;;;;;;67.53;32.75;;;;;;;-9.93;88.50;100608.00;7396304;19;20019;-69
2022/12/16 00:34:08;;;;;;;72.78;35.90;;;;;;;-9.97;88.45;100606.94;7395622;19;20022;-69
2022/12/16 00:36:37;;;;;;;65.40;34.75;;;;;;;-10.01;88.25;100605.91;7396318;19;20022;-69
2022/12/16 00:39:05;;;;;;;65.40;33.35;;;;;;;-10.07;87.78;100605.53;7397822;19;20018;-69
2022/12/16 00:41:34;;;;;;;63.83;33.70;;;;;;;-10.10;88.01;100604.47;7397674;19;20018;-69
2022/12/16 00:44:02;;;;;;;63.53;30.65;;;;;;;-10.13;88.28;100612.78;7395370;19;20427;-69
2022/12/16 00:46:31;;;;;;;59.38;31.77;;;;;;;-10.16;88.27;100610.03;7395986;19;20031;-70
2022/12/16 00:48:59;;;;;;;53.78;27.77;;;;;;;-10.18;88.45;100614.19;7395611;19;20081;-69
2022/12/16 00:51:30;;;;;;;51.67;28.83;;;;;;;-10.21;88.52;100613.97;7395431;19;20074;-69
2022/12/16 00:53:59;;;;;;;53.53;30.58;;;;;;;-10.21;88.51;100611.44;7397731;19;20040;-69
2022/12/16 00:56:27;;;;;;;58.63;29.10;;;;;;;-10.22;88.26;100614.75;7396097;19;20019;-68
2022/12/16 00:58:56;;;;;;;56.17;30.23;;;;;;;-10.27;88.33;100611.06;7397172;19;20015;-69
2022/12/16 01:01:24;;;;;;;55.42;28.65;;;;;;;-10.27;88.18;100616.16;7394826;19;20018;-68
2022/12/16 01:03:53;;;;;;;54.30;29.85;;;;;;;-10.31;88.22;100610.91;7395431;19;20027;-68
2022/12/16 01:06:21;;;;;;;55.40;29.08;;;;;;;-10.32;88.16;100604.06;7395783;19;20022;-68
2022/12/16 01:08:52;;;;;;;52.90;29.38;;;;;;;-10.33;88.35;100601.44;7395705;19;20423;-70
2022/12/16 01:11:22;;;;;;;54.17;27.75;;;;;;;-10.35;88.26;100603.00;7396371;19;20078;-69
2022/12/16 01:13:53;;;;;;;59.53;30.27;;;;;;;-10.37;88.27;100607.16;7396628;19;20029;-70
2022/12/16 01:16:22;;;;;;;53.55;29.05;;;;;;;-10.38;88.17;100602.88;7395325;19;20484;-69
2022/12/16 01:18:50;;;;;;;57.83;29.73;;;;;;;-10.37;88.16;100612.22;7396027;19;20379;-70
2022/12/16 01:21:19;;;;;;;54.42;28.45;;;;;;;-10.39;87.90;100607.03;7396422;19;20022;-69
2022/12/16 01:23:51;;;;;;;52.97;29.13;;;;;;;-10.39;87.84;100608.72;7394974;19;20031;-69
2022/12/16 01:26:20;;;;;;;53.05;29.65;;;;;;;-10.42;87.94;100606.00;7394913;19;20069;-70
2022/12/16 01:28:50;;;;;;;51.78;29.48;;;;;;;-10.45;87.78;100611.75;7395795;19;20082;-69
2022/12/16 01:31:20;;;;;;;53.55;29.17;;;;;;;-10.48;87.95;100604.81;7396059;19;20029;-69
2022/12/16 01:33:49;;;;;;;53.10;28.98;;;;;;;-10.50;87.99;100606.41;7395688;19;20031;-69
2022/12/16 01:36:18;;;;;;;60.15;31.38;;;;;;;-10.53;87.94;100611.28;7394177;19;20022;-69
2022/12/16 01:38:48;;;;;;;63.67;32.55;;;;;;;-10.54;87.66;100616.28;7395946;19;20022;-69
2022/12/16 01:41:20;;;;;;;60.33;30.13;;;;;;;-10.58;87.79;100614.34;7395431;19;20530;-69
2022/12/16 01:43:49;;;;;;;56.67;30.90;;;;;;;-10.61;87.75;100619.19;7394846;19;20022;-69
2022/12/16 01:46:22;;;;;;;52.13;30.40;;;;;;;-10.66;87.60;100614.72;7394377;19;20031;-69
2022/12/16 01:48:55;;;;;;;54.78;27.60;;;;;;;-10.67;87.66;100612.97;7396135;19;20019;-69
2022/12/16 01:51:28;;;;;;;50.75;27.52;;;;;;;-10.70;87.75;100614.44;7396091;19;20022;-69
2022/12/16 01:54:00;;;;;;;52.63;29.27;;;;;;;-10.73;87.51;100609.19;7395292;19;20066;-69
2022/12/16 01:56:34;;;;;;;55.13;28.20;;;;;;;-10.79;87.32;100614.78;7394713;19;20082;-69
2022/12/16 01:59:03;;;;;;;;;;;;;;;-10.81;87.29;100611.25;7395893;19;20015;-69
2022/12/16 02:01:32;;;;;;;49.42;26.83;;;;;;;-10.84;87.29;100611.06;7393589;19;19919;-69
2022/12/16 02:04:04;;;;;;;55.42;28.05;;;;;;;-10.88;87.53;100612.53;7393378;19;20026;-70
2022/12/16 02:06:33;;;;;;;50.53;28.50;;;;;;;-10.93;86.72;100610.50;7393924;19;20047;-70
2022/12/16 02:09:05;;;;;;;53.15;27.60;;;;;;;-11.00;86.98;100602.50;7392886;19;20436;-70
2022/12/16 02:11:52;;;;;;;57.13;30.73;;;;;;;-11.01;87.51;100608.34;7395306;19;20022;-71
2022/12/16 02:14:39;;;;;;;52.65;30.42;;;;;;;-11.05;87.23;100616.53;7395369;19;20018;-71
2022/12/16 02:17:15;;;;;;;54.22;28.45;;;;;;;-11.05;87.43;100615.69;7392954;19;20018;-72
2022/12/16 02:20:15;;;;;;;54.47;28.48;;;;;;;-11.05;87.64;100613.16;7395131;19;20040;-72
2022/12/16 02:22:59;;;;;;;54.47;28.75;;;;;;;-11.05;87.65;100608.09;7391858;19;20078;-71
2022/12/16 02:26:00;;;;;;;50.20;27.73;;;;;;;-11.04;87.81;100607.31;7394750;19;20031;-71
2022/12/16 02:28:50;;;;;;;52.42;26.85;;;;;;;-11.04;87.62;100612.38;7394958;19;20032;-70
2022/12/16 02:31:28;;;;;;;56.42;28.63;;;;;;;-11.03;87.48;100614.09;7394801;19;20031;-70
2022/12/16 02:34:10;;;;;;;62.65;29.98;;;;;;;-11.04;87.44;100612.38;7394031;19;20019;-70
2022/12/16 02:36:50;;;;;;;54.17;28.45;;;;;;;-11.05;87.57;100611.47;7393252;19;20019;-71
2022/12/16 02:39:23;;;;;;;54.00;29.35;;;;;;;-11.07;87.24;100607.09;7394504;19;20035;-71
2022/12/16 02:41:57;;;;;;;54.50;27.33;;;;;;;-11.10;87.15;100601.84;7394704;19;20022;-71
2022/12/16 02:44:31;;;;;;;;;;;;;;;-11.12;86.36;100606.78;7393604;19;20091;-71
2022/12/16 02:47:02;;;;;;;51.15;25.45;;;;;;;-11.17;87.29;100601.47;7392693;19;19930;-71
2022/12/16 02:49:56;;;;;;;50.67;26.90;;;;;;;-11.17;87.43;100598.03;7399452;19;20018;-71
2022/12/16 02:52:26;;;;;;;53.30;25.70;;;;;;;-11.20;87.55;100590.25;7399904;19;20027;-71
2022/12/16 02:54:58;;;;;;;51.70;27.15;;;;;;;-11.20;87.75;100586.06;7401670;19;20475;-71
2022/12/16 02:57:45;;;;;;;49.47;26.98;;;;;;;-11.22;87.43;100592.69;7398041;19;20411;-71
2022/12/16 03:00:17;;;;;;;54.15;28.55;;;;;;;-11.25;87.42;100586.56;7400632;19;20419;-72
2022/12/16 03:02:57;;;;;;;55.53;29.10;;;;;;;-11.23;87.65;100584.97;7400968;19;20019;-71
2022/12/16 03:05:30;;;;;;;52.97;28.83;;;;;;;-11.26;87.65;100584.78;7400056;19;20086;-69
2022/12/16 03:08:01;;;;;;;48.83;26.50;;;;;;;-11.21;87.64;100585.97;7397911;19;20037;-70
2022/12/16 03:10:36;;;;;;;52.65;28.25;;;;;;;-11.20;87.61;100592.78;7400453;19;20414;-70
2022/12/16 03:13:08;;;;;;;52.45;25.92;;;;;;;-11.19;87.59;100597.94;7400386;19;20512;-70
2022/12/16 03:15:37;;;;;;;52.95;27.67;;;;;;;-11.18;87.60;100596.31;7397483;19;20022;-71
2022/12/16 03:18:11;;;;;;;54.03;28.15;;;;;;;-11.17;87.53;100596.41;7400563;19;20022;-70
2022/12/16 03:20:45;;;;;;;52.25;27.70;;;;;;;-11.17;87.50;100590.44;7402393;19;20015;-71
2022/12/16 03:23:18;;;;;;;51.53;27.13;;;;;;;-11.16;87.46;100592.19;7405020;19;20031;-71
2022/12/16 03:25:50;;;;;;;51.93;25.90;;;;;;;-11.23;87.21;100592.56;7404412;19;20372;-70
2022/12/16 03:28:31;;;;;;;46.17;25.45;;;;;;;-11.18;87.28;100593.78;7401298;19;20035;-71
2022/12/16 03:31:06;;;;;;;53.75;27.75;;;;;;;-11.21;87.37;100589.34;7398005;19;20042;-73
2022/12/16 03:33:41;;;;;;;48.42;25.92;;;;;;;-11.20;87.27;100592.78;7400074;19;20074;-71
2022/12/16 03:36:15;;;;;;;53.38;26.58;;;;;;;-11.22;87.24;100595.22;7398309;19;20018;-68
2022/12/16 03:38:45;;;;;;;;;;;;;;;-11.23;87.06;100598.53;7401154;19;20070;-68
2022/12/16 03:41:15;;;;;;;54.08;26.38;;;;;;;-11.25;87.24;100596.69;7399591;19;19939;-69
2022/12/16 03:43:44;;;;;;;52.15;26.48;;;;;;;-11.30;86.88;100594.75;7399032;19;20501;-69
2022/12/16 03:46:14;;;;;;;53.00;27.67;;;;;;;-11.31;86.55;100595.53;7398355;19;20089;-68
2022/12/16 03:48:51;;;;;;;56.20;27.58;;;;;;;-11.33;87.09;100597.06;7396744;19;20018;-69
2022/12/16 03:51:20;;;;;;;56.90;29.90;;;;;;;-11.36;86.92;100594.34;7398986;19;20081;-69
2022/12/16 03:53:49;;;;;;;54.92;27.85;;;;;;;-11.35;87.18;100601.16;7399377;19;20018;-69
2022/12/16 03:56:17;;;;;;;57.63;27.58;;;;;;;-11.34;87.31;100599.50;7397603;19;20032;-68
2022/12/16 03:58:46;;;;;;;54.67;28.83;;;;;;;-11.34;87.31;100596.97;7398942;19;20019;-69
2022/12/16 04:01:14;;;;;;;54.30;27.60;;;;;;;-11.34;87.46;100592.78;7398488;19;20023;-69
2022/12/16 04:03:43;;;;;;;53.35;27.63;;;;;;;-11.35;87.29;100598.59;7397612;19;20035;-69
2022/12/16 04:06:17;;;;;;;50.10;27.75;;;;;;;-11.37;87.15;100597.66;7397597;19;20026;-68
2022/12/16 04:08:52;;;;;;;53.90;27.30;;;;;;;-11.36;87.42;100606.13;7395548;19;20036;-69
2022/12/16 04:24:57;;;;;;;62.35;32.22;;;;;;;-11.41;87.33;100612.53;7396302;19;20017;-69
2022/12/16 04:27:26;;;;;;;54.03;28.38;;;;;;;-11.43;87.22;100604.00;7395577;19;20485;-69
